createdAt,value
2023-03-28T00:00:12.592Z,10.70
2023-03-28T00:02:39.072Z,6.38
2023-03-28T00:05:05.790Z,6.03
2023-03-28T00:07:32.375Z,11.80
2023-03-28T00:09:58.838Z,5.22
2023-03-28T00:12:25.419Z,11.02
2023-03-28T00:14:51.917Z,5.68
2023-03-28T00:17:18.377Z,6.05
2023-03-28T00:19:47.121Z,10.95
2023-03-28T00:22:13.700Z,7.78
2023-03-28T00:24:40.175Z,6.82
2023-03-28T00:27:07.962Z,4.28
2023-03-28T00:29:34.748Z,8.75
2023-03-28T00:32:01.235Z,5.75
2023-03-28T00:34:27.704Z,13.05
2023-03-28T00:36:55.196Z,13.38
2023-03-28T00:39:21.822Z,11.25
2023-03-28T00:41:48.370Z,32.33
2023-03-28T00:44:33.621Z,7.65
2023-03-28T00:47:00.226Z,10.57
2023-03-28T00:49:27.003Z,7.70
2023-03-28T00:51:57.449Z,5.45
2023-03-28T00:54:25.600Z,4.80
2023-03-28T00:56:54.181Z,4.80
2023-03-28T00:59:24.298Z,9.70
2023-03-28T01:01:50.866Z,5.82
2023-03-28T01:04:20.460Z,9.80
2023-03-28T01:06:50.035Z,5.20
2023-03-28T01:09:17.118Z,6.55
2023-03-28T01:11:45.041Z,7.55
2023-03-28T01:14:14.092Z,4.75
2023-03-28T01:16:41.968Z,5.78
2023-03-28T01:19:26.811Z,4.50
2023-03-28T01:22:12.927Z,5.07
2023-03-28T01:24:54.686Z,4.53
2023-03-28T01:27:40.052Z,4.15
2023-03-28T01:30:21.515Z,6.03
2023-03-28T01:33:06.989Z,5.78
2023-03-28T01:35:33.842Z,5.95
2023-03-28T01:38:06.077Z,5.43
2023-03-28T01:40:35.701Z,6.82
2023-03-28T01:43:20.779Z,3.17
2023-03-28T01:46:00.898Z,7.15
2023-03-28T01:48:27.811Z,8.15
2023-03-28T01:50:57.498Z,2.63
2023-03-28T01:53:32.184Z,3.85
2023-03-28T01:56:11.270Z,3.30
2023-03-28T01:58:40.540Z,2.90
2023-03-28T02:01:16.784Z,3.83
2023-03-28T02:03:46.501Z,5.78
2023-03-28T02:06:14.114Z,3.80
2023-03-28T02:08:41.683Z,2.85
2023-03-28T02:11:09.362Z,6.15
2023-03-28T02:13:56.125Z,11.95
2023-03-28T02:16:23.522Z,4.85
2023-03-28T02:18:54.489Z,3.80
2023-03-28T02:21:27.932Z,4.53
2023-03-28T02:23:55.180Z,5.47
2023-03-28T02:26:22.801Z,2.80
2023-03-28T02:28:50.710Z,5.78
2023-03-28T02:31:17.330Z,3.20
2023-03-28T02:33:45.849Z,3.88
2023-03-28T02:36:21.358Z,7.53
2023-03-28T02:39:06.378Z,4.88
2023-03-28T02:41:44.460Z,4.47
2023-03-28T02:44:10.938Z,4.95
2023-03-28T02:46:52.423Z,3.92
2023-03-28T02:49:47.305Z,6.05
2023-03-28T02:52:35.396Z,5.35
2023-03-28T02:55:06.848Z,5.32
2023-03-28T02:57:43.005Z,4.32
2023-03-28T03:00:16.637Z,5.47
2023-03-28T03:05:10.101Z,4.07
2023-03-28T03:07:37.797Z,6.93
2023-03-28T03:10:08.108Z,7.75
2023-03-28T03:12:36.087Z,4.63
2023-03-28T03:15:03.966Z,4.05
2023-03-28T03:17:31.084Z,4.63
2023-03-28T03:19:57.569Z,2.67
2023-03-28T03:22:24.026Z,4.35
2023-03-28T03:24:53.256Z,5.90
2023-03-28T03:27:20.421Z,2.90
2023-03-28T03:29:48.580Z,6.00
2023-03-28T03:32:15.317Z,4.00
2023-03-28T03:34:42.156Z,3.45
2023-03-28T03:37:11.580Z,5.13
2023-03-28T03:39:38.048Z,3.10
2023-03-28T03:42:04.641Z,4.95
2023-03-28T03:44:31.217Z,3.28
2023-03-28T03:46:57.969Z,7.05
2023-03-28T03:49:24.563Z,7.50
2023-03-28T03:51:51.061Z,3.65
2023-03-28T03:54:17.618Z,2.55
2023-03-28T03:56:44.167Z,5.82
2023-03-28T03:59:10.637Z,4.20
2023-03-28T04:01:39.504Z,2.92
2023-03-28T04:04:09.199Z,4.63
2023-03-28T04:06:35.971Z,5.88
2023-03-28T04:09:02.435Z,3.50
2023-03-28T04:11:28.940Z,2.13
2023-03-28T04:13:55.591Z,3.63
2023-03-28T04:16:23.952Z,2.33
2023-03-28T04:18:53.498Z,2.55
2023-03-28T04:21:22.045Z,2.92
2023-03-28T04:23:48.544Z,7.85
2023-03-28T04:26:15.607Z,1.73
2023-03-28T04:28:43.428Z,7.05
2023-03-28T04:31:12.168Z,3.80
2023-03-28T04:33:40.178Z,4.43
2023-03-28T04:36:08.122Z,2.78
2023-03-28T04:38:37.721Z,4.78
2023-03-28T04:41:05.446Z,4.32
2023-03-28T04:43:32.138Z,5.38
2023-03-28T04:45:59.055Z,4.22
2023-03-28T04:48:26.486Z,3.42
2023-03-28T04:50:53.299Z,4.28
2023-03-28T04:53:19.778Z,2.55
2023-03-28T04:55:50.338Z,4.53
2023-03-28T04:58:17.722Z,6.50
2023-03-28T05:00:44.388Z,4.75
2023-03-28T05:03:13.168Z,3.40
2023-03-28T05:05:39.993Z,4.18
2023-03-28T05:08:06.999Z,4.47
2023-03-28T05:10:33.529Z,4.70
2023-03-28T05:12:59.977Z,12.25
2023-03-28T05:15:26.473Z,4.63
2023-03-28T05:17:53.035Z,2.75
2023-03-28T05:20:19.748Z,2.28
2023-03-28T05:22:46.244Z,2.70
2023-03-28T05:25:12.756Z,1.90
2023-03-28T05:27:39.275Z,3.83
2023-03-28T05:30:06.648Z,3.63
2023-03-28T05:32:33.515Z,4.25
2023-03-28T05:35:00.022Z,3.25
2023-03-28T05:37:28.502Z,2.17
2023-03-28T05:39:55.313Z,7.00
2023-03-28T05:42:22.149Z,5.28
2023-03-28T05:44:48.713Z,3.55
2023-03-28T05:47:15.488Z,3.00
2023-03-28T05:49:42.057Z,2.35
2023-03-28T05:52:08.632Z,3.45
2023-03-28T05:54:35.494Z,8.52
2023-03-28T05:57:02.077Z,6.53
2023-03-28T05:59:28.576Z,2.50
2023-03-28T06:01:55.588Z,5.43
2023-03-28T06:04:23.022Z,2.17
2023-03-28T06:06:50.724Z,5.22
2023-03-28T06:09:17.700Z,2.97
2023-03-28T06:11:44.275Z,5.28
2023-03-28T06:14:11.111Z,5.38
2023-03-28T06:16:37.911Z,4.55
2023-03-28T06:19:17.324Z,6.85
2023-03-28T06:21:45.033Z,6.63
2023-03-28T06:24:11.556Z,2.17
2023-03-28T06:26:38.183Z,6.28
2023-03-28T06:29:05.272Z,5.70
2023-03-28T06:31:32.049Z,7.35
2023-03-28T06:33:58.671Z,4.93
2023-03-28T06:36:25.257Z,4.70
2023-03-28T06:38:53.602Z,6.68
2023-03-28T06:41:20.396Z,3.50
2023-03-28T06:43:46.934Z,3.85
2023-03-28T06:46:16.243Z,8.00
2023-03-28T06:48:42.989Z,6.53
2023-03-28T06:51:09.473Z,3.65
2023-03-28T06:53:36.214Z,1.65
2023-03-28T06:56:02.703Z,5.70
2023-03-28T06:58:29.229Z,3.80
2023-03-28T07:00:58.732Z,6.25
2023-03-28T07:03:26.248Z,4.97
2023-03-28T07:05:52.887Z,5.20
2023-03-28T07:08:19.364Z,3.97
2023-03-28T07:10:45.866Z,3.85
2023-03-28T07:13:12.711Z,6.00
2023-03-28T07:15:39.178Z,7.13
2023-03-28T07:18:06.638Z,4.85
2023-03-28T07:20:33.128Z,3.85
2023-03-28T07:22:59.596Z,4.57
2023-03-28T07:25:26.209Z,8.32
2023-03-28T07:27:52.763Z,5.97
2023-03-28T07:30:19.282Z,3.08
2023-03-28T07:35:15.603Z,3.10
2023-03-28T07:37:42.100Z,7.00
2023-03-28T07:40:10.864Z,5.63
2023-03-28T07:42:37.548Z,6.57
2023-03-28T07:45:04.134Z,5.63
2023-03-28T07:47:30.738Z,5.85
2023-03-28T07:49:57.883Z,8.52
2023-03-28T07:52:24.335Z,7.85
2023-03-28T07:54:51.908Z,8.15
2023-03-28T07:57:18.499Z,6.22
2023-03-28T07:59:44.994Z,5.10
2023-03-28T08:02:12.016Z,6.43
2023-03-28T08:04:38.519Z,4.88
2023-03-28T08:07:07.756Z,6.13
2023-03-28T08:09:34.250Z,7.28
2023-03-28T08:12:00.789Z,8.75
2023-03-28T08:14:27.295Z,7.50
2023-03-28T08:16:53.856Z,3.33
2023-03-28T08:19:20.493Z,5.90
2023-03-28T08:21:46.967Z,3.53
2023-03-28T08:24:19.533Z,2.75
2023-03-28T08:26:49.182Z,2.47
2023-03-28T08:29:15.698Z,3.88
2023-03-28T08:31:42.289Z,5.82
2023-03-28T08:34:08.830Z,5.22
2023-03-28T08:36:35.363Z,4.70
2023-03-28T08:39:03.399Z,5.90
2023-03-28T08:41:38.816Z,3.78
2023-03-28T08:44:23.705Z,2.97
2023-03-28T08:46:52.346Z,6.15
2023-03-28T08:49:20.292Z,4.13
2023-03-28T08:51:48.959Z,6.93
2023-03-28T08:54:24.501Z,6.20
2023-03-28T08:56:52.393Z,6.38
2023-03-28T08:59:37.814Z,4.47
2023-03-28T09:02:11.097Z,6.82
2023-03-28T09:04:38.421Z,7.47
2023-03-28T09:07:26.590Z,6.10
2023-03-28T09:10:02.432Z,5.18
2023-03-28T09:12:35.436Z,6.15
2023-03-28T09:15:20.612Z,5.85
2023-03-28T09:17:47.093Z,3.47
2023-03-28T09:20:23.893Z,6.40
2023-03-28T09:22:50.504Z,7.57
2023-03-28T09:25:20.017Z,7.05
2023-03-28T09:27:52.046Z,3.05
2023-03-28T09:30:20.795Z,6.18
2023-03-28T09:32:49.556Z,4.85
2023-03-28T09:35:17.869Z,7.20
2023-03-28T09:37:47.569Z,5.38
2023-03-28T09:40:22.793Z,9.02
2023-03-28T09:42:56.993Z,5.40
2023-03-28T09:45:30.384Z,8.88
2023-03-28T09:47:57.289Z,9.30
2023-03-28T09:50:23.924Z,7.88
2023-03-28T09:52:53.326Z,9.27
2023-03-28T09:55:20.989Z,9.15
2023-03-28T09:57:59.752Z,9.25
2023-03-28T10:00:26.802Z,11.35
2023-03-28T10:02:53.848Z,13.80
2023-03-28T10:05:29.451Z,10.95
2023-03-28T10:07:57.818Z,12.80
2023-03-28T10:10:25.158Z,10.32
2023-03-28T10:12:56.758Z,13.88
2023-03-28T10:15:40.198Z,12.20
2023-03-28T10:18:06.818Z,9.85
2023-03-28T10:20:36.629Z,7.43
2023-03-28T10:23:04.644Z,10.43
2023-03-28T10:25:42.783Z,5.28
2023-03-28T10:28:14.174Z,6.20
2023-03-28T10:30:41.137Z,8.50
2023-03-28T10:33:16.885Z,5.43
2023-03-28T10:35:45.007Z,8.20
2023-03-28T10:38:18.868Z,5.47
2023-03-28T10:43:13.523Z,6.30
2023-03-28T10:45:41.876Z,7.07
2023-03-28T10:48:16.166Z,9.50
2023-03-28T10:50:50.326Z,5.47
2023-03-28T10:53:35.257Z,7.95
2023-03-28T10:56:02.100Z,7.53
2023-03-28T10:58:38.785Z,4.63
2023-03-28T11:01:11.184Z,6.78
2023-03-28T11:03:43.880Z,4.25
2023-03-28T11:06:23.038Z,9.50
2023-03-28T11:09:02.030Z,7.93
2023-03-28T11:11:31.580Z,6.53
2023-03-28T11:14:07.968Z,6.20
2023-03-28T11:16:42.379Z,4.38
2023-03-28T11:19:21.633Z,2.70
2023-03-28T11:21:52.338Z,4.03
2023-03-28T11:24:18.780Z,5.35
2023-03-28T11:26:45.331Z,6.90
2023-03-28T11:29:18.457Z,5.90
2023-03-28T11:34:32.265Z,4.70
2023-03-28T11:37:03.421Z,5.68
2023-03-28T11:39:37.304Z,4.45
2023-03-28T11:44:33.538Z,7.43
2023-03-28T11:47:04.578Z,6.15
2023-03-28T11:49:36.328Z,6.25
2023-03-28T11:52:02.900Z,10.07
2023-03-28T11:54:39.593Z,5.22
2023-03-28T11:57:06.935Z,6.65
2023-03-28T11:59:39.082Z,7.38
2023-03-28T12:02:10.032Z,7.22
2023-03-28T12:04:43.090Z,8.57
2023-03-28T12:07:32.969Z,8.02
2023-03-28T12:10:03.278Z,9.52
2023-03-28T12:12:35.809Z,6.07
2023-03-28T12:15:10.781Z,10.63
2023-03-28T12:17:40.215Z,10.18
2023-03-28T12:20:12.741Z,7.80
2023-03-28T12:22:50.496Z,6.57
2023-03-28T12:25:17.175Z,9.45
2023-03-28T12:27:58.652Z,8.57
2023-03-28T12:30:35.826Z,9.95
2023-03-28T12:33:17.357Z,6.43
2023-03-28T12:35:50.182Z,8.57
2023-03-28T12:38:35.723Z,8.45
2023-03-28T12:41:04.056Z,9.13
2023-03-28T12:43:39.550Z,10.40
2023-03-28T12:46:08.424Z,6.88
2023-03-28T12:48:43.649Z,8.40
2023-03-28T12:51:10.191Z,9.27
2023-03-28T12:53:40.438Z,9.57
2023-03-28T12:56:09.926Z,9.48
2023-03-28T12:58:39.283Z,11.48
2023-03-28T13:01:09.121Z,8.27
2023-03-28T13:04:14.700Z,8.32
2023-03-28T13:06:48.207Z,12.15
2023-03-28T13:09:19.195Z,14.10
2023-03-28T13:12:13.053Z,11.98
2023-03-28T13:14:41.208Z,10.20
2023-03-28T13:17:27.559Z,12.10
2023-03-28T13:19:54.300Z,12.00
2023-03-28T13:22:23.830Z,10.10
2023-03-28T13:24:50.453Z,10.88
2023-03-28T13:27:33.040Z,9.07
2023-03-28T13:30:06.220Z,12.52
2023-03-28T13:32:33.895Z,10.10
2023-03-28T13:35:05.525Z,16.15
2023-03-28T13:37:44.042Z,15.15
2023-03-28T13:40:28.906Z,15.25
2023-03-28T13:42:58.936Z,16.67
2023-03-28T13:45:26.144Z,16.38
2023-03-28T13:48:06.139Z,13.93
2023-03-28T13:50:39.019Z,10.70
2023-03-28T13:53:05.932Z,18.02
2023-03-28T13:55:32.425Z,15.25
2023-03-28T13:58:00.984Z,11.13
2023-03-28T14:00:28.906Z,10.05
2023-03-28T14:03:01.863Z,11.60
2023-03-28T14:05:29.606Z,9.50
2023-03-28T14:08:01.898Z,12.82
2023-03-28T14:10:32.793Z,10.73
2023-03-28T14:13:14.597Z,12.40
2023-03-28T14:15:43.183Z,13.65
2023-03-28T14:18:16.526Z,9.00
2023-03-28T14:20:44.265Z,9.80
2023-03-28T14:23:25.015Z,12.20
2023-03-28T14:25:51.513Z,15.63
2023-03-28T14:28:17.978Z,14.23
2023-03-28T14:30:44.475Z,9.40
2023-03-28T14:33:12.799Z,8.77
2023-03-28T14:35:45.712Z,10.77
2023-03-28T14:38:16.914Z,11.63
2023-03-28T14:40:44.381Z,10.10
2023-03-28T14:43:12.193Z,13.32
2023-03-28T14:45:43.494Z,12.77
2023-03-28T14:48:14.315Z,11.20
2023-03-28T14:50:41.293Z,12.90
2023-03-28T14:53:11.787Z,9.77
2023-03-28T14:55:38.807Z,16.65
2023-03-28T14:58:05.943Z,12.18
2023-03-28T15:00:37.632Z,13.50
2023-03-28T15:03:06.293Z,9.85
2023-03-28T15:05:33.564Z,10.32
2023-03-28T15:08:01.402Z,10.30
2023-03-28T15:10:28.510Z,10.98
2023-03-28T15:13:06.983Z,14.68
2023-03-28T15:15:37.761Z,11.85
2023-03-28T15:18:06.791Z,11.00
2023-03-28T15:20:34.848Z,13.23
2023-03-28T15:23:03.956Z,10.30
2023-03-28T15:25:31.350Z,12.57
2023-03-28T15:28:02.579Z,10.10
2023-03-28T15:30:31.075Z,13.63
2023-03-28T15:33:02.698Z,9.63
2023-03-28T15:35:31.462Z,8.85
2023-03-28T15:38:19.271Z,11.57
2023-03-28T15:40:47.261Z,9.48
2023-03-28T15:43:25.969Z,9.95
2023-03-28T15:45:59.827Z,10.30
2023-03-28T15:50:53.967Z,13.07
2023-03-28T15:53:21.039Z,10.93
2023-03-28T15:55:48.494Z,10.02
2023-03-28T15:58:16.374Z,9.35
2023-03-28T16:00:44.754Z,9.93
2023-03-28T16:03:17.329Z,13.38
2023-03-28T16:05:51.709Z,13.23
2023-03-28T16:08:39.546Z,11.00
2023-03-28T16:11:07.158Z,6.53
2023-03-28T16:13:34.108Z,8.40
2023-03-28T16:16:01.169Z,7.20
2023-03-28T16:18:27.838Z,8.80
2023-03-28T16:20:54.403Z,9.55
2023-03-28T16:23:21.164Z,7.45
2023-03-28T16:25:47.658Z,7.00
2023-03-28T16:28:17.274Z,6.00
2023-03-28T16:30:43.858Z,13.38
2023-03-28T16:33:10.480Z,9.57
2023-03-28T16:35:37.215Z,9.10
2023-03-28T16:38:03.956Z,7.18
2023-03-28T16:40:30.550Z,9.00
2023-03-28T16:42:57.080Z,8.48
2023-03-28T16:45:23.795Z,10.07
2023-03-28T16:47:50.298Z,7.25
2023-03-28T16:50:17.137Z,6.88
2023-03-28T16:52:43.775Z,7.53
2023-03-28T16:55:11.861Z,10.82
2023-03-28T16:57:38.387Z,7.05
2023-03-28T17:00:05.875Z,14.38
2023-03-28T17:02:32.447Z,7.32
2023-03-28T17:04:59.040Z,10.38
2023-03-28T17:07:25.730Z,8.63
2023-03-28T17:09:52.483Z,10.82
2023-03-28T17:12:20.504Z,11.48
2023-03-28T17:14:47.277Z,12.82
2023-03-28T17:17:14.012Z,12.20
2023-03-28T17:19:40.625Z,12.90
2023-03-28T17:22:07.169Z,11.65
2023-03-28T17:24:34.006Z,12.75
2023-03-28T17:27:01.028Z,12.55
2023-03-28T17:29:27.655Z,12.02
2023-03-28T17:31:54.505Z,14.43
2023-03-28T17:34:21.750Z,13.90
2023-03-28T17:36:49.009Z,19.35
2023-03-28T17:39:15.584Z,14.23
2023-03-28T17:41:42.587Z,17.95
2023-03-28T17:44:09.366Z,13.85
2023-03-28T17:46:36.832Z,19.75
2023-03-28T17:49:03.549Z,21.27
2023-03-28T17:51:30.175Z,24.98
2023-03-28T17:53:56.731Z,26.27
2023-03-28T17:56:24.279Z,26.98
2023-03-28T17:58:51.083Z,21.67
2023-03-28T18:01:19.318Z,30.55
2023-03-28T18:03:46.655Z,28.25
2023-03-28T18:06:13.995Z,28.85
2023-03-28T18:08:40.608Z,20.48
2023-03-28T18:11:08.510Z,28.88
2023-03-28T18:13:35.963Z,29.70
2023-03-28T18:16:05.660Z,39.72
2023-03-28T18:18:32.852Z,33.40
2023-03-28T18:20:59.434Z,47.53
2023-03-28T18:23:25.920Z,26.42
2023-03-28T18:25:52.545Z,26.52
2023-03-28T18:28:23.593Z,17.50
2023-03-28T18:30:51.266Z,17.20
2023-03-28T18:33:18.384Z,16.58
2023-03-28T18:35:48.369Z,21.75
2023-03-28T18:38:15.632Z,19.58
2023-03-28T18:40:42.356Z,18.33
2023-03-28T18:43:09.338Z,16.27
2023-03-28T18:45:36.473Z,19.92
2023-03-28T18:48:03.674Z,15.93
2023-03-28T18:50:30.278Z,16.83
2023-03-28T18:52:57.472Z,16.98
2023-03-28T18:55:24.431Z,12.80
2023-03-28T18:57:52.716Z,14.73
2023-03-28T19:00:19.860Z,13.52
2023-03-28T19:02:47.324Z,15.02
2023-03-28T19:05:15.398Z,12.48
2023-03-28T19:07:46.056Z,14.52
2023-03-28T19:10:13.627Z,12.18
2023-03-28T19:12:43.277Z,15.43
2023-03-28T19:15:11.070Z,15.13
2023-03-28T19:17:38.648Z,13.20
2023-03-28T19:20:13.686Z,11.00
2023-03-28T19:22:40.537Z,17.38
2023-03-28T19:25:09.305Z,17.50
2023-03-28T19:27:36.647Z,16.83
2023-03-28T19:30:04.330Z,17.65
2023-03-28T19:32:32.909Z,14.35
2023-03-28T19:35:00.007Z,100.05
2023-03-28T19:37:27.598Z,68.28
2023-03-28T19:39:59.193Z,20.30
2023-03-28T19:42:25.957Z,25.42
2023-03-28T19:44:52.547Z,21.23
2023-03-28T19:47:19.239Z,14.48
2023-03-28T19:49:47.361Z,13.52
2023-03-28T19:52:13.930Z,12.07
2023-03-28T19:54:40.530Z,15.50
2023-03-28T19:57:08.436Z,9.63
2023-03-28T19:59:35.402Z,12.35
2023-03-28T20:02:02.149Z,12.15
2023-03-28T20:04:28.901Z,12.43
2023-03-28T20:06:55.692Z,15.70
2023-03-28T20:09:22.866Z,16.05
2023-03-28T20:11:49.624Z,16.38
2023-03-28T20:14:20.113Z,10.48
2023-03-28T20:16:47.121Z,12.20
2023-03-28T20:19:13.743Z,14.38
2023-03-28T20:21:40.712Z,12.63
2023-03-28T20:24:07.541Z,13.30
2023-03-28T20:26:34.192Z,15.18
2023-03-28T20:29:04.057Z,14.52
2023-03-28T20:31:30.867Z,20.25
2023-03-28T20:33:57.560Z,14.85
2023-03-28T20:36:24.157Z,13.32
2023-03-28T20:38:50.766Z,16.00
2023-03-28T20:41:18.379Z,17.05
2023-03-28T20:43:48.157Z,16.65
2023-03-28T20:46:18.952Z,18.45
2023-03-28T20:48:46.540Z,14.70
2023-03-28T20:51:14.428Z,25.85
2023-03-28T20:53:41.834Z,19.27
2023-03-28T20:56:09.657Z,17.92
2023-03-28T20:58:38.859Z,17.73
2023-03-28T21:01:06.013Z,17.40
2023-03-28T21:03:47.698Z,17.02
2023-03-28T21:06:16.090Z,18.92
2023-03-28T21:08:46.636Z,16.70
2023-03-28T21:11:16.953Z,17.60
2023-03-28T21:13:43.745Z,16.63
2023-03-28T21:16:11.203Z,18.58
2023-03-28T21:18:38.286Z,16.38
2023-03-28T21:21:06.164Z,15.57
2023-03-28T21:23:32.968Z,15.60
2023-03-28T21:25:59.916Z,18.45
2023-03-28T21:28:26.791Z,17.23
2023-03-28T21:30:57.356Z,19.23
2023-03-28T21:33:24.705Z,15.05
2023-03-28T21:35:51.770Z,16.33
2023-03-28T21:38:18.617Z,16.23
2023-03-28T21:40:46.211Z,20.40
2023-03-28T21:43:12.752Z,19.77
2023-03-28T21:45:39.339Z,18.58
2023-03-28T21:48:06.142Z,18.38
2023-03-28T21:50:32.628Z,17.67
2023-03-28T21:52:59.090Z,21.98
2023-03-28T21:55:25.730Z,18.45
2023-03-28T21:57:52.210Z,22.02
2023-03-28T22:00:18.907Z,21.63
2023-03-28T22:02:45.658Z,26.95
2023-03-28T22:05:22.571Z,21.10
2023-03-28T22:07:55.664Z,16.30
2023-03-28T22:10:26.753Z,23.25
2023-03-28T22:12:54.030Z,23.77
2023-03-28T22:15:20.571Z,21.50
2023-03-28T22:17:47.065Z,22.58
2023-03-28T22:20:14.448Z,26.35
2023-03-28T22:22:44.907Z,22.95
2023-03-28T22:25:13.233Z,22.60
2023-03-28T22:27:39.911Z,19.63
2023-03-28T22:30:10.414Z,22.23
2023-03-28T22:32:38.627Z,23.60
2023-03-28T22:35:05.673Z,23.10
2023-03-28T22:37:32.195Z,28.42
2023-03-28T22:39:58.697Z,19.75
2023-03-28T22:42:25.635Z,23.13
2023-03-28T22:44:52.189Z,20.98
2023-03-28T22:47:18.824Z,24.58
2023-03-28T22:49:45.525Z,27.02
2023-03-28T22:52:13.042Z,22.33
2023-03-28T22:54:39.614Z,21.40
2023-03-28T22:57:06.188Z,20.30
2023-03-28T22:59:33.167Z,25.27
2023-03-28T23:01:59.668Z,23.20
2023-03-28T23:04:27.210Z,24.70
2023-03-28T23:06:53.763Z,26.15
2023-03-28T23:09:20.436Z,26.27
2023-03-28T23:11:47.160Z,25.98
2023-03-28T23:14:13.713Z,28.25
2023-03-28T23:16:40.287Z,28.33
2023-03-28T23:19:06.889Z,24.27
2023-03-28T23:21:34.595Z,25.40
2023-03-28T23:24:01.150Z,23.38
2023-03-28T23:26:27.669Z,30.00
2023-03-28T23:28:54.198Z,29.88
2023-03-28T23:31:21.004Z,26.98
2023-03-28T23:33:47.555Z,28.00
2023-03-28T23:36:14.783Z,21.98
2023-03-28T23:38:41.538Z,22.38
2023-03-28T23:41:08.241Z,25.73
2023-03-28T23:43:34.736Z,20.35
2023-03-28T23:46:04.313Z,23.83
2023-03-28T23:48:31.276Z,20.27
2023-03-28T23:50:58.360Z,23.75
2023-03-28T23:53:25.129Z,23.75
2023-03-28T23:55:51.801Z,24.63
2023-03-28T23:58:18.290Z,23.30
